sensor_id;sensor_type;location;lat;lon;timestamp;temperature;humidity
9179;DHT22;71287;48.414;11.478;2024-03-29T00:01:50;4.10;99.90
9179;DHT22;71287;48.414;11.478;2024-03-29T00:04:16;4.10;99.90
9179;DHT22;71287;48.414;11.478;2024-03-29T00:06:42;4.10;99.90
9179;DHT22;71287;48.414;11.478;2024-03-29T00:09:07;4.20;99.90
9179;DHT22;71287;48.414;11.478;2024-03-29T00:11:33;4.20;99.90
9179;DHT22;71287;48.414;11.478;2024-03-29T00:13:59;4.20;99.90
9179;DHT22;71287;48.414;11.478;2024-03-29T00:16:25;4.30;99.90
9179;DHT22;71287;48.414;11.478;2024-03-29T00:18:52;4.30;99.90
9179;DHT22;71287;48.414;11.478;2024-03-29T00:21:18;4.30;99.90
9179;DHT22;71287;48.414;11.478;2024-03-29T00:23:44;4.20;99.90
9179;DHT22;71287;48.414;11.478;2024-03-29T00:26:09;4.30;99.90
9179;DHT22;71287;48.414;11.478;2024-03-29T00:28:35;4.30;99.90
9179;DHT22;71287;48.414;11.478;2024-03-29T00:31:01;4.30;99.90
9179;DHT22;71287;48.414;11.478;2024-03-29T00:33:27;4.30;99.90
9179;DHT22;71287;48.414;11.478;2024-03-29T00:35:54;4.30;99.90
9179;DHT22;71287;48.414;11.478;2024-03-29T00:38:20;4.30;99.90
9179;DHT22;71287;48.414;11.478;2024-03-29T00:40:46;4.30;99.90
9179;DHT22;71287;48.414;11.478;2024-03-29T00:43:11;4.30;99.90
9179;DHT22;71287;48.414;11.478;2024-03-29T00:45:37;4.30;99.90
9179;DHT22;71287;48.414;11.478;2024-03-29T00:48:03;4.30;99.90
9179;DHT22;71287;48.414;11.478;2024-03-29T00:50:29;4.30;99.90
9179;DHT22;71287;48.414;11.478;2024-03-29T00:52:56;4.40;99.90
9179;DHT22;71287;48.414;11.478;2024-03-29T00:55:22;4.40;99.90
9179;DHT22;71287;48.414;11.478;2024-03-29T00:57:48;4.40;99.90
9179;DHT22;71287;48.414;11.478;2024-03-29T01:00:14;4.40;99.90
9179;DHT22;71287;48.414;11.478;2024-03-29T01:02:40;4.40;99.90
9179;DHT22;71287;48.414;11.478;2024-03-29T01:05:06;4.40;99.90
9179;DHT22;71287;48.414;11.478;2024-03-29T01:07:32;4.40;99.90
9179;DHT22;71287;48.414;11.478;2024-03-29T01:09:59;4.40;99.90
9179;DHT22;71287;48.414;11.478;2024-03-29T01:12:25;4.40;99.90
9179;DHT22;71287;48.414;11.478;2024-03-29T01:14:51;4.40;99.90
9179;DHT22;71287;48.414;11.478;2024-03-29T01:17:17;4.40;99.90
9179;DHT22;71287;48.414;11.478;2024-03-29T01:19:43;4.30;99.90
9179;DHT22;71287;48.414;11.478;2024-03-29T01:22:09;4.30;99.90
9179;DHT22;71287;48.414;11.478;2024-03-29T01:24:35;4.20;99.90
9179;DHT22;71287;48.414;11.478;2024-03-29T01:27:02;4.20;99.90
9179;DHT22;71287;48.414;11.478;2024-03-29T01:29:28;4.10;99.90
9179;DHT22;71287;48.414;11.478;2024-03-29T01:31:54;4.10;99.90
9179;DHT22;71287;48.414;11.478;2024-03-29T01:34:20;4.10;99.90
9179;DHT22;71287;48.414;11.478;2024-03-29T01:36:45;4.10;99.90
9179;DHT22;71287;48.414;11.478;2024-03-29T01:39:11;4.10;99.90
9179;DHT22;71287;48.414;11.478;2024-03-29T01:41:37;4.10;99.90
9179;DHT22;71287;48.414;11.478;2024-03-29T01:44:04;4.10;99.90
9179;DHT22;71287;48.414;11.478;2024-03-29T01:46:34;4.10;99.90
9179;DHT22;71287;48.414;11.478;2024-03-29T01:49:02;4.10;99.90
9179;DHT22;71287;48.414;11.478;2024-03-29T01:51:29;4.10;99.90
9179;DHT22;71287;48.414;11.478;2024-03-29T01:53:56;4.00;99.90
9179;DHT22;71287;48.414;11.478;2024-03-29T01:56:23;4.10;99.90
9179;DHT22;71287;48.414;11.478;2024-03-29T01:58:52;4.00;99.90
9179;DHT22;71287;48.414;11.478;2024-03-29T02:01:21;4.00;99.90
9179;DHT22;71287;48.414;11.478;2024-03-29T02:03:48;4.00;99.90
9179;DHT22;71287;48.414;11.478;2024-03-29T02:06:18;4.00;99.90
9179;DHT22;71287;48.414;11.478;2024-03-29T02:08:45;4.00;99.90
9179;DHT22;71287;48.414;11.478;2024-03-29T02:11:12;4.00;99.90
9179;DHT22;71287;48.414;11.478;2024-03-29T02:13:39;3.90;99.90
9179;DHT22;71287;48.414;11.478;2024-03-29T02:16:06;4.00;99.90
9179;DHT22;71287;48.414;11.478;2024-03-29T02:18:34;3.90;99.90
9179;DHT22;71287;48.414;11.478;2024-03-29T02:21:01;3.90;99.90
9179;DHT22;71287;48.414;11.478;2024-03-29T02:23:30;3.90;99.90
9179;DHT22;71287;48.414;11.478;2024-03-29T02:26:00;3.90;99.90
9179;DHT22;71287;48.414;11.478;2024-03-29T02:28:26;3.80;99.90
9179;DHT22;71287;48.414;11.478;2024-03-29T02:30:53;3.70;99.90
9179;DHT22;71287;48.414;11.478;2024-03-29T02:33:20;3.70;99.90
9179;DHT22;71287;48.414;11.478;2024-03-29T02:35:47;3.70;99.90
9179;DHT22;71287;48.414;11.478;2024-03-29T02:38:14;3.70;99.90
9179;DHT22;71287;48.414;11.478;2024-03-29T02:40:42;3.60;99.90
9179;DHT22;71287;48.414;11.478;2024-03-29T02:43:10;3.60;99.90
9179;DHT22;71287;48.414;11.478;2024-03-29T02:45:37;3.60;99.90
9179;DHT22;71287;48.414;11.478;2024-03-29T02:48:04;3.60;99.90
9179;DHT22;71287;48.414;11.478;2024-03-29T02:50:30;3.60;99.90
9179;DHT22;71287;48.414;11.478;2024-03-29T02:52:57;3.50;99.90
9179;DHT22;71287;48.414;11.478;2024-03-29T02:55:23;3.50;99.90
9179;DHT22;71287;48.414;11.478;2024-03-29T02:57:49;3.50;99.90
9179;DHT22;71287;48.414;11.478;2024-03-29T03:00:17;3.50;99.90
9179;DHT22;71287;48.414;11.478;2024-03-29T03:02:43;3.60;99.90
9179;DHT22;71287;48.414;11.478;2024-03-29T03:05:10;3.50;99.90
9179;DHT22;71287;48.414;11.478;2024-03-29T03:07:36;3.50;99.90
9179;DHT22;71287;48.414;11.478;2024-03-29T03:10:21;3.50;99.90
9179;DHT22;71287;48.414;11.478;2024-03-29T03:13:05;3.50;99.90
9179;DHT22;71287;48.414;11.478;2024-03-29T03:15:33;3.40;99.90
9179;DHT22;71287;48.414;11.478;2024-03-29T03:17:59;3.30;99.90
9179;DHT22;71287;48.414;11.478;2024-03-29T03:20:26;3.30;99.90
9179;DHT22;71287;48.414;11.478;2024-03-29T03:22:56;3.30;99.90
9179;DHT22;71287;48.414;11.478;2024-03-29T03:25:22;3.30;99.90
9179;DHT22;71287;48.414;11.478;2024-03-29T03:27:48;3.30;99.90
9179;DHT22;71287;48.414;11.478;2024-03-29T03:30:15;3.40;99.90
9179;DHT22;71287;48.414;11.478;2024-03-29T03:32:42;3.40;99.90
9179;DHT22;71287;48.414;11.478;2024-03-29T03:35:09;3.40;99.90
9179;DHT22;71287;48.414;11.478;2024-03-29T03:37:35;3.40;99.90
9179;DHT22;71287;48.414;11.478;2024-03-29T03:40:02;3.40;99.90
9179;DHT22;71287;48.414;11.478;2024-03-29T03:42:29;3.50;99.90
9179;DHT22;71287;48.414;11.478;2024-03-29T03:44:56;3.50;99.90
9179;DHT22;71287;48.414;11.478;2024-03-29T03:47:22;3.50;99.90
9179;DHT22;71287;48.414;11.478;2024-03-29T03:49:50;3.50;99.90
9179;DHT22;71287;48.414;11.478;2024-03-29T03:52:16;3.50;99.90
9179;DHT22;71287;48.414;11.478;2024-03-29T03:54:42;3.60;99.90
9179;DHT22;71287;48.414;11.478;2024-03-29T03:57:08;3.50;99.90
9179;DHT22;71287;48.414;11.478;2024-03-29T03:59:35;3.50;99.90
9179;DHT22;71287;48.414;11.478;2024-03-29T04:02:01;3.50;99.90
9179;DHT22;71287;48.414;11.478;2024-03-29T04:04:27;3.60;99.90
9179;DHT22;71287;48.414;11.478;2024-03-29T04:06:54;3.60;99.90
9179;DHT22;71287;48.414;11.478;2024-03-29T04:09:22;3.60;99.90
9179;DHT22;71287;48.414;11.478;2024-03-29T04:11:47;3.60;99.90
9179;DHT22;71287;48.414;11.478;2024-03-29T04:14:14;3.60;99.90
9179;DHT22;71287;48.414;11.478;2024-03-29T04:16:40;3.60;99.90
9179;DHT22;71287;48.414;11.478;2024-03-29T04:19:06;3.60;99.90
9179;DHT22;71287;48.414;11.478;2024-03-29T04:21:32;3.60;99.90
9179;DHT22;71287;48.414;11.478;2024-03-29T04:24:00;3.70;99.90
9179;DHT22;71287;48.414;11.478;2024-03-29T04:26:26;3.70;99.90
9179;DHT22;71287;48.414;11.478;2024-03-29T04:28:53;3.70;99.90
9179;DHT22;71287;48.414;11.478;2024-03-29T04:31:19;3.70;99.90
9179;DHT22;71287;48.414;11.478;2024-03-29T04:33:45;3.60;99.90
9179;DHT22;71287;48.414;11.478;2024-03-29T04:36:11;3.60;99.90
9179;DHT22;71287;48.414;11.478;2024-03-29T04:38:38;3.50;99.90
9179;DHT22;71287;48.414;11.478;2024-03-29T04:41:06;3.50;99.90
9179;DHT22;71287;48.414;11.478;2024-03-29T04:43:33;3.50;99.90
9179;DHT22;71287;48.414;11.478;2024-03-29T04:46:03;3.50;99.90
9179;DHT22;71287;48.414;11.478;2024-03-29T04:48:31;3.50;99.90
9179;DHT22;71287;48.414;11.478;2024-03-29T04:50:58;3.50;99.90
9179;DHT22;71287;48.414;11.478;2024-03-29T04:53:25;3.50;99.90
9179;DHT22;71287;48.414;11.478;2024-03-29T04:55:55;3.60;99.90
9179;DHT22;71287;48.414;11.478;2024-03-29T04:58:23;3.70;99.90
9179;DHT22;71287;48.414;11.478;2024-03-29T05:00:51;3.70;99.90
9179;DHT22;71287;48.414;11.478;2024-03-29T05:03:18;3.80;99.90
9179;DHT22;71287;48.414;11.478;2024-03-29T05:05:45;3.80;99.90
9179;DHT22;71287;48.414;11.478;2024-03-29T05:08:12;3.80;99.90
9179;DHT22;71287;48.414;11.478;2024-03-29T05:10:39;3.80;99.90
9179;DHT22;71287;48.414;11.478;2024-03-29T05:13:06;4.00;99.90
9179;DHT22;71287;48.414;11.478;2024-03-29T05:15:34;4.40;99.90
9179;DHT22;71287;48.414;11.478;2024-03-29T05:18:01;4.80;99.90
9179;DHT22;71287;48.414;11.478;2024-03-29T05:20:29;5.20;99.90
9179;DHT22;71287;48.414;11.478;2024-03-29T05:22:56;5.40;99.90
9179;DHT22;71287;48.414;11.478;2024-03-29T05:25:23;5.80;99.90
9179;DHT22;71287;48.414;11.478;2024-03-29T05:27:49;6.30;99.90
9179;DHT22;71287;48.414;11.478;2024-03-29T05:30:16;6.70;99.90
9179;DHT22;71287;48.414;11.478;2024-03-29T05:32:45;6.90;99.90
9179;DHT22;71287;48.414;11.478;2024-03-29T05:35:11;7.20;99.90
9179;DHT22;71287;48.414;11.478;2024-03-29T05:37:39;7.40;99.90
9179;DHT22;71287;48.414;11.478;2024-03-29T05:40:07;7.50;99.90
9179;DHT22;71287;48.414;11.478;2024-03-29T05:42:34;7.80;99.90
9179;DHT22;71287;48.414;11.478;2024-03-29T05:45:03;7.80;99.90
9179;DHT22;71287;48.414;11.478;2024-03-29T05:47:31;7.60;99.90
9179;DHT22;71287;48.414;11.478;2024-03-29T05:49:59;7.50;99.90
9179;DHT22;71287;48.414;11.478;2024-03-29T05:52:25;7.40;99.90
9179;DHT22;71287;48.414;11.478;2024-03-29T05:54:52;7.20;99.90
9179;DHT22;71287;48.414;11.478;2024-03-29T05:57:19;7.00;99.90
9179;DHT22;71287;48.414;11.478;2024-03-29T05:59:49;6.80;99.90
9179;DHT22;71287;48.414;11.478;2024-03-29T06:02:15;6.70;99.90
9179;DHT22;71287;48.414;11.478;2024-03-29T06:04:42;6.70;99.90
9179;DHT22;71287;48.414;11.478;2024-03-29T06:07:14;6.70;99.90
9179;DHT22;71287;48.414;11.478;2024-03-29T06:09:40;6.70;99.90
9179;DHT22;71287;48.414;11.478;2024-03-29T06:12:08;6.70;99.90
9179;DHT22;71287;48.414;11.478;2024-03-29T06:14:37;6.60;99.90
9179;DHT22;71287;48.414;11.478;2024-03-29T06:17:21;6.70;99.90
9179;DHT22;71287;48.414;11.478;2024-03-29T06:19:51;6.80;99.90
9179;DHT22;71287;48.414;11.478;2024-03-29T06:22:22;7.00;99.90
9179;DHT22;71287;48.414;11.478;2024-03-29T06:24:48;7.00;99.90
9179;DHT22;71287;48.414;11.478;2024-03-29T06:27:17;7.10;99.90
9179;DHT22;71287;48.414;11.478;2024-03-29T06:29:46;7.10;99.90
9179;DHT22;71287;48.414;11.478;2024-03-29T06:32:13;7.10;99.90
9179;DHT22;71287;48.414;11.478;2024-03-29T06:34:40;7.20;99.90
9179;DHT22;71287;48.414;11.478;2024-03-29T06:37:06;7.20;99.90
9179;DHT22;71287;48.414;11.478;2024-03-29T06:39:35;7.20;99.90
9179;DHT22;71287;48.414;11.478;2024-03-29T06:42:02;7.30;99.90
9179;DHT22;71287;48.414;11.478;2024-03-29T06:44:28;7.40;99.90
9179;DHT22;71287;48.414;11.478;2024-03-29T06:46:55;7.50;99.90
9179;DHT22;71287;48.414;11.478;2024-03-29T06:49:22;7.40;99.90
9179;DHT22;71287;48.414;11.478;2024-03-29T06:51:49;7.40;99.90
9179;DHT22;71287;48.414;11.478;2024-03-29T06:54:16;7.40;99.90
9179;DHT22;71287;48.414;11.478;2024-03-29T06:56:44;7.50;99.90
9179;DHT22;71287;48.414;11.478;2024-03-29T06:59:10;7.50;99.90
9179;DHT22;71287;48.414;11.478;2024-03-29T07:01:37;7.50;99.90
9179;DHT22;71287;48.414;11.478;2024-03-29T07:04:04;7.60;99.90
9179;DHT22;71287;48.414;11.478;2024-03-29T07:06:31;7.70;99.90
9179;DHT22;71287;48.414;11.478;2024-03-29T07:08:58;7.80;99.90
9179;DHT22;71287;48.414;11.478;2024-03-29T07:11:25;7.90;99.90
9179;DHT22;71287;48.414;11.478;2024-03-29T07:13:53;8.00;99.90
9179;DHT22;71287;48.414;11.478;2024-03-29T07:16:19;8.10;99.90
9179;DHT22;71287;48.414;11.478;2024-03-29T07:18:46;8.30;99.90
9179;DHT22;71287;48.414;11.478;2024-03-29T07:21:13;8.70;99.90
9179;DHT22;71287;48.414;11.478;2024-03-29T07:23:40;9.20;99.60
9179;DHT22;71287;48.414;11.478;2024-03-29T07:26:06;11.20;98.40
9179;DHT22;71287;48.414;11.478;2024-03-29T07:28:33;17.40;93.10
9179;DHT22;71287;48.414;11.478;2024-03-29T07:31:06;21.20;78.00
9179;DHT22;71287;48.414;11.478;2024-03-29T07:33:33;22.80;67.10
9179;DHT22;71287;48.414;11.478;2024-03-29T07:36:00;23.40;59.60
9179;DHT22;71287;48.414;11.478;2024-03-29T07:38:28;22.50;58.00
9179;DHT22;71287;48.414;11.478;2024-03-29T07:40:55;22.90;56.30
9179;DHT22;71287;48.414;11.478;2024-03-29T07:43:23;26.40;52.20
9179;DHT22;71287;48.414;11.478;2024-03-29T07:45:49;29.00;48.60
9179;DHT22;71287;48.414;11.478;2024-03-29T07:48:17;33.00;41.80
9179;DHT22;71287;48.414;11.478;2024-03-29T07:50:45;35.10;35.40
9179;DHT22;71287;48.414;11.478;2024-03-29T07:53:12;32.90;34.50
9179;DHT22;71287;48.414;11.478;2024-03-29T07:55:40;29.50;37.60
9179;DHT22;71287;48.414;11.478;2024-03-29T07:58:07;27.60;39.30
9179;DHT22;71287;48.414;11.478;2024-03-29T08:00:38;25.20;42.10
9179;DHT22;71287;48.414;11.478;2024-03-29T08:03:05;23.60;44.60
9179;DHT22;71287;48.414;11.478;2024-03-29T08:05:33;22.80;45.70
9179;DHT22;71287;48.414;11.478;2024-03-29T08:08:00;22.90;46.90
9179;DHT22;71287;48.414;11.478;2024-03-29T08:10:28;24.60;45.90
9179;DHT22;71287;48.414;11.478;2024-03-29T08:12:55;24.50;44.60
9179;DHT22;71287;48.414;11.478;2024-03-29T08:15:22;22.90;45.70
9179;DHT22;71287;48.414;11.478;2024-03-29T08:17:50;21.00;47.30
9179;DHT22;71287;48.414;11.478;2024-03-29T08:20:16;19.80;49.50
9179;DHT22;71287;48.414;11.478;2024-03-29T08:22:45;19.80;51.10
9179;DHT22;71287;48.414;11.478;2024-03-29T08:25:12;19.30;52.30
9179;DHT22;71287;48.414;11.478;2024-03-29T08:27:39;18.60;52.90
9179;DHT22;71287;48.414;11.478;2024-03-29T08:30:07;18.00;53.90
9179;DHT22;71287;48.414;11.478;2024-03-29T08:32:34;17.60;55.00
9179;DHT22;71287;48.414;11.478;2024-03-29T08:35:00;17.30;56.40
9179;DHT22;71287;48.414;11.478;2024-03-29T08:37:27;17.00;58.00
9179;DHT22;71287;48.414;11.478;2024-03-29T08:39:54;16.90;57.90
9179;DHT22;71287;48.414;11.478;2024-03-29T08:42:21;16.70;57.70
9179;DHT22;71287;48.414;11.478;2024-03-29T08:44:48;16.90;58.60
9179;DHT22;71287;48.414;11.478;2024-03-29T08:47:15;17.10;58.60
9179;DHT22;71287;48.414;11.478;2024-03-29T08:49:42;17.10;58.60
9179;DHT22;71287;48.414;11.478;2024-03-29T08:52:08;16.90;58.80
9179;DHT22;71287;48.414;11.478;2024-03-29T08:54:35;16.70;59.30
9179;DHT22;71287;48.414;11.478;2024-03-29T08:57:04;16.80;60.50
9179;DHT22;71287;48.414;11.478;2024-03-29T08:59:30;16.90;60.30
9179;DHT22;71287;48.414;11.478;2024-03-29T09:02:03;16.90;60.60
9179;DHT22;71287;48.414;11.478;2024-03-29T09:04:30;16.80;61.20
9179;DHT22;71287;48.414;11.478;2024-03-29T09:06:59;16.60;60.80
9179;DHT22;71287;48.414;11.478;2024-03-29T09:09:26;16.20;61.60
9179;DHT22;71287;48.414;11.478;2024-03-29T09:11:52;15.80;63.10
9179;DHT22;71287;48.414;11.478;2024-03-29T09:14:21;15.60;63.80
9179;DHT22;71287;48.414;11.478;2024-03-29T09:16:49;15.40;64.90
9179;DHT22;71287;48.414;11.478;2024-03-29T09:19:16;15.20;65.80
9179;DHT22;71287;48.414;11.478;2024-03-29T09:21:43;15.10;67.30
9179;DHT22;71287;48.414;11.478;2024-03-29T09:24:10;15.00;68.20
9179;DHT22;71287;48.414;11.478;2024-03-29T09:26:37;15.20;69.00
9179;DHT22;71287;48.414;11.478;2024-03-29T09:29:05;15.40;69.00
9179;DHT22;71287;48.414;11.478;2024-03-29T09:31:33;15.60;69.60
9179;DHT22;71287;48.414;11.478;2024-03-29T09:34:00;15.60;68.70
9179;DHT22;71287;48.414;11.478;2024-03-29T09:36:27;15.60;69.20
9179;DHT22;71287;48.414;11.478;2024-03-29T09:38:53;15.50;69.30
9179;DHT22;71287;48.414;11.478;2024-03-29T09:41:21;15.40;69.40
9179;DHT22;71287;48.414;11.478;2024-03-29T09:43:48;15.50;69.70
9179;DHT22;71287;48.414;11.478;2024-03-29T09:46:16;15.40;68.70
9179;DHT22;71287;48.414;11.478;2024-03-29T09:48:45;15.40;68.80
9179;DHT22;71287;48.414;11.478;2024-03-29T09:51:13;15.40;69.30
9179;DHT22;71287;48.414;11.478;2024-03-29T09:53:41;15.40;70.10
9179;DHT22;71287;48.414;11.478;2024-03-29T09:56:09;15.40;70.80
9179;DHT22;71287;48.414;11.478;2024-03-29T09:58:37;15.40;71.10
9179;DHT22;71287;48.414;11.478;2024-03-29T10:01:05;15.50;71.00
9179;DHT22;71287;48.414;11.478;2024-03-29T10:03:37;15.70;71.70
9179;DHT22;71287;48.414;11.478;2024-03-29T10:06:07;15.80;71.00
9179;DHT22;71287;48.414;11.478;2024-03-29T10:08:35;16.00;71.90
9179;DHT22;71287;48.414;11.478;2024-03-29T10:11:02;16.20;72.20
9179;DHT22;71287;48.414;11.478;2024-03-29T10:13:29;16.20;72.20
9179;DHT22;71287;48.414;11.478;2024-03-29T10:15:56;16.30;72.60
9179;DHT22;71287;48.414;11.478;2024-03-29T10:18:23;16.30;72.60
9179;DHT22;71287;48.414;11.478;2024-03-29T10:20:58;16.40;72.70
9179;DHT22;71287;48.414;11.478;2024-03-29T10:23:27;16.40;73.50
9179;DHT22;71287;48.414;11.478;2024-03-29T10:25:54;16.40;74.80
9179;DHT22;71287;48.414;11.478;2024-03-29T10:28:21;16.30;74.10
9179;DHT22;71287;48.414;11.478;2024-03-29T10:30:48;16.40;75.40
9179;DHT22;71287;48.414;11.478;2024-03-29T10:33:15;16.40;74.30
9179;DHT22;71287;48.414;11.478;2024-03-29T10:35:42;16.40;74.30
9179;DHT22;71287;48.414;11.478;2024-03-29T10:38:09;16.60;74.80
9179;DHT22;71287;48.414;11.478;2024-03-29T10:40:39;16.80;73.60
9179;DHT22;71287;48.414;11.478;2024-03-29T10:43:06;16.90;73.00
9179;DHT22;71287;48.414;11.478;2024-03-29T10:45:38;17.10;73.00
9179;DHT22;71287;48.414;11.478;2024-03-29T10:48:06;17.10;72.70
9179;DHT22;71287;48.414;11.478;2024-03-29T10:50:35;17.20;73.60
9179;DHT22;71287;48.414;11.478;2024-03-29T10:53:03;17.30;73.00
9179;DHT22;71287;48.414;11.478;2024-03-29T10:55:30;17.40;72.20
9179;DHT22;71287;48.414;11.478;2024-03-29T10:58:00;17.60;72.00
9179;DHT22;71287;48.414;11.478;2024-03-29T11:00:29;17.70;73.30
9179;DHT22;71287;48.414;11.478;2024-03-29T11:03:00;17.80;73.10
9179;DHT22;71287;48.414;11.478;2024-03-29T11:05:30;18.00;74.00
9179;DHT22;71287;48.414;11.478;2024-03-29T11:07:59;18.30;74.10
9179;DHT22;71287;48.414;11.478;2024-03-29T11:10:33;18.40;73.00
9179;DHT22;71287;48.414;11.478;2024-03-29T11:13:09;18.50;73.00
9179;DHT22;71287;48.414;11.478;2024-03-29T11:15:41;18.40;73.80
9179;DHT22;71287;48.414;11.478;2024-03-29T11:18:09;18.40;73.00
9179;DHT22;71287;48.414;11.478;2024-03-29T11:20:36;18.40;71.50
9179;DHT22;71287;48.414;11.478;2024-03-29T11:23:08;18.40;70.90
9179;DHT22;71287;48.414;11.478;2024-03-29T11:25:40;18.50;71.20
9179;DHT22;71287;48.414;11.478;2024-03-29T11:28:08;18.40;70.90
9179;DHT22;71287;48.414;11.478;2024-03-29T11:30:42;18.40;71.60
9179;DHT22;71287;48.414;11.478;2024-03-29T11:33:27;18.40;71.70
9179;DHT22;71287;48.414;11.478;2024-03-29T11:35:54;18.40;71.90
9179;DHT22;71287;48.414;11.478;2024-03-29T11:38:21;18.40;71.80
9179;DHT22;71287;48.414;11.478;2024-03-29T11:41:01;18.40;71.80
9179;DHT22;71287;48.414;11.478;2024-03-29T11:43:30;18.60;71.20
9179;DHT22;71287;48.414;11.478;2024-03-29T11:45:58;18.70;70.90
9179;DHT22;71287;48.414;11.478;2024-03-29T11:48:27;19.00;70.30
9179;DHT22;71287;48.414;11.478;2024-03-29T11:50:54;19.30;68.80
9179;DHT22;71287;48.414;11.478;2024-03-29T11:53:21;19.40;68.70
9179;DHT22;71287;48.414;11.478;2024-03-29T11:55:48;19.40;67.90
9179;DHT22;71287;48.414;11.478;2024-03-29T11:58:19;19.40;68.50
9179;DHT22;71287;48.414;11.478;2024-03-29T12:00:47;19.40;69.90
9179;DHT22;71287;48.414;11.478;2024-03-29T12:03:14;19.30;67.90
9179;DHT22;71287;48.414;11.478;2024-03-29T12:05:41;19.20;69.30
9179;DHT22;71287;48.414;11.478;2024-03-29T12:08:09;19.30;69.60
9179;DHT22;71287;48.414;11.478;2024-03-29T12:10:36;19.30;69.90
9179;DHT22;71287;48.414;11.478;2024-03-29T12:13:04;19.40;70.60
9179;DHT22;71287;48.414;11.478;2024-03-29T12:15:31;19.40;70.40
9179;DHT22;71287;48.414;11.478;2024-03-29T12:18:00;19.30;69.50
9179;DHT22;71287;48.414;11.478;2024-03-29T12:20:29;19.10;70.40
9179;DHT22;71287;48.414;11.478;2024-03-29T12:22:58;19.00;71.60
9179;DHT22;71287;48.414;11.478;2024-03-29T12:25:25;19.20;72.40
9179;DHT22;71287;48.414;11.478;2024-03-29T12:27:52;19.30;71.90
9179;DHT22;71287;48.414;11.478;2024-03-29T12:30:19;19.50;71.20
9179;DHT22;71287;48.414;11.478;2024-03-29T12:32:46;19.50;71.20
9179;DHT22;71287;48.414;11.478;2024-03-29T12:35:16;19.60;72.20
9179;DHT22;71287;48.414;11.478;2024-03-29T12:37:52;19.80;72.60
9179;DHT22;71287;48.414;11.478;2024-03-29T12:40:19;19.80;72.10
9179;DHT22;71287;48.414;11.478;2024-03-29T12:42:48;19.60;71.20
9179;DHT22;71287;48.414;11.478;2024-03-29T12:45:16;19.60;72.80
9179;DHT22;71287;48.414;11.478;2024-03-29T12:47:44;19.50;72.00
9179;DHT22;71287;48.414;11.478;2024-03-29T12:50:14;19.40;71.20
9179;DHT22;71287;48.414;11.478;2024-03-29T12:52:46;19.40;71.40
9179;DHT22;71287;48.414;11.478;2024-03-29T12:55:13;19.40;72.00
9179;DHT22;71287;48.414;11.478;2024-03-29T12:57:43;19.40;71.90
9179;DHT22;71287;48.414;11.478;2024-03-29T13:00:11;19.30;71.20
9179;DHT22;71287;48.414;11.478;2024-03-29T13:02:38;19.00;72.30
9179;DHT22;71287;48.414;11.478;2024-03-29T13:05:05;18.90;73.40
9179;DHT22;71287;48.414;11.478;2024-03-29T13:07:33;19.00;72.90
9179;DHT22;71287;48.414;11.478;2024-03-29T13:10:00;19.00;74.30
9179;DHT22;71287;48.414;11.478;2024-03-29T13:12:28;19.10;77.50
9179;DHT22;71287;48.414;11.478;2024-03-29T13:14:56;19.10;77.40
9179;DHT22;71287;48.414;11.478;2024-03-29T13:17:22;19.20;76.70
9179;DHT22;71287;48.414;11.478;2024-03-29T13:19:49;19.20;77.20
9179;DHT22;71287;48.414;11.478;2024-03-29T13:22:16;19.30;77.90
9179;DHT22;71287;48.414;11.478;2024-03-29T13:24:45;19.30;77.00
9179;DHT22;71287;48.414;11.478;2024-03-29T13:27:12;19.30;76.70
9179;DHT22;71287;48.414;11.478;2024-03-29T13:29:39;19.30;76.50
9179;DHT22;71287;48.414;11.478;2024-03-29T13:32:06;19.30;77.30
9179;DHT22;71287;48.414;11.478;2024-03-29T13:34:33;19.30;77.20
9179;DHT22;71287;48.414;11.478;2024-03-29T13:37:00;19.30;78.50
9179;DHT22;71287;48.414;11.478;2024-03-29T13:39:27;19.30;77.90
9179;DHT22;71287;48.414;11.478;2024-03-29T13:41:55;19.40;79.00
9179;DHT22;71287;48.414;11.478;2024-03-29T13:44:22;19.40;77.50
9179;DHT22;71287;48.414;11.478;2024-03-29T13:46:48;19.50;77.10
9179;DHT22;71287;48.414;11.478;2024-03-29T13:49:17;19.50;77.80
9179;DHT22;71287;48.414;11.478;2024-03-29T13:51:46;19.60;77.10
9179;DHT22;71287;48.414;11.478;2024-03-29T13:54:13;19.50;76.60
9179;DHT22;71287;48.414;11.478;2024-03-29T13:56:39;19.60;76.50
9179;DHT22;71287;48.414;11.478;2024-03-29T13:59:08;19.70;76.20
9179;DHT22;71287;48.414;11.478;2024-03-29T14:01:34;19.70;76.30
9179;DHT22;71287;48.414;11.478;2024-03-29T14:04:01;19.70;75.30
9179;DHT22;71287;48.414;11.478;2024-03-29T14:06:28;19.60;75.90
9179;DHT22;71287;48.414;11.478;2024-03-29T14:08:55;19.60;76.80
9179;DHT22;71287;48.414;11.478;2024-03-29T14:11:22;19.60;77.10
9179;DHT22;71287;48.414;11.478;2024-03-29T14:13:49;19.60;76.80
9179;DHT22;71287;48.414;11.478;2024-03-29T14:16:22;19.60;77.50
9179;DHT22;71287;48.414;11.478;2024-03-29T14:18:49;19.50;77.00
9179;DHT22;71287;48.414;11.478;2024-03-29T14:21:16;19.60;77.80
9179;DHT22;71287;48.414;11.478;2024-03-29T14:23:42;19.60;77.50
9179;DHT22;71287;48.414;11.478;2024-03-29T14:26:09;19.60;77.30
9179;DHT22;71287;48.414;11.478;2024-03-29T14:28:36;19.60;77.70
9179;DHT22;71287;48.414;11.478;2024-03-29T14:31:03;19.50;77.20
9179;DHT22;71287;48.414;11.478;2024-03-29T14:33:31;19.50;77.50
9179;DHT22;71287;48.414;11.478;2024-03-29T14:35:59;19.40;78.00
9179;DHT22;71287;48.414;11.478;2024-03-29T14:38:26;19.40;78.90
9179;DHT22;71287;48.414;11.478;2024-03-29T14:40:52;19.50;80.00
9179;DHT22;71287;48.414;11.478;2024-03-29T14:43:19;19.50;80.20
9179;DHT22;71287;48.414;11.478;2024-03-29T14:45:46;19.60;80.20
9179;DHT22;71287;48.414;11.478;2024-03-29T14:48:14;19.70;79.80
9179;DHT22;71287;48.414;11.478;2024-03-29T14:50:42;19.80;79.70
9179;DHT22;71287;48.414;11.478;2024-03-29T14:53:09;19.80;80.10
9179;DHT22;71287;48.414;11.478;2024-03-29T14:55:36;19.90;81.00
9179;DHT22;71287;48.414;11.478;2024-03-29T14:58:05;20.00;81.20
9179;DHT22;71287;48.414;11.478;2024-03-29T15:00:32;20.00;80.60
9179;DHT22;71287;48.414;11.478;2024-03-29T15:02:58;20.10;80.70
9179;DHT22;71287;48.414;11.478;2024-03-29T15:05:25;20.00;80.30
9179;DHT22;71287;48.414;11.478;2024-03-29T15:07:53;20.00;80.60
9179;DHT22;71287;48.414;11.478;2024-03-29T15:10:20;20.00;80.90
9179;DHT22;71287;48.414;11.478;2024-03-29T15:12:49;20.00;81.10
9179;DHT22;71287;48.414;11.478;2024-03-29T15:15:15;20.00;81.00
9179;DHT22;71287;48.414;11.478;2024-03-29T15:17:43;20.00;81.40
9179;DHT22;71287;48.414;11.478;2024-03-29T15:20:11;20.00;81.30
9179;DHT22;71287;48.414;11.478;2024-03-29T15:22:41;20.00;81.50
9179;DHT22;71287;48.414;11.478;2024-03-29T15:25:11;20.00;81.80
9179;DHT22;71287;48.414;11.478;2024-03-29T15:27:37;19.90;82.20
9179;DHT22;71287;48.414;11.478;2024-03-29T15:30:21;19.90;82.10
9179;DHT22;71287;48.414;11.478;2024-03-29T15:32:48;19.80;81.70
9179;DHT22;71287;48.414;11.478;2024-03-29T15:35:15;19.80;81.80
9179;DHT22;71287;48.414;11.478;2024-03-29T15:37:42;19.70;82.20
9179;DHT22;71287;48.414;11.478;2024-03-29T15:40:10;19.70;82.90